Aviation Digital Data Service (ADDS)

Output produced by METARs form (0046 UTC 01 July 2016)
found at http://www.aviationweather.gov/adds/metars/
 
KAOO 302353Z AUTO 17006KT 10SM CLR 23/11 A3005 RMK AO2 SLP168 T02280106 10261 20228 53000
KAOO 302253Z AUTO 20006KT 10SM FEW070 25/09 A3004 RMK AO2 SLP165 T02500089
KAOO 302153Z AUTO 12005KT 10SM SCT065 25/09 A3003 RMK AO2 SLP164 T02500094
KAOO 302053Z AUTO VRB03KT 10SM SCT065 25/08 A3005 RMK AO2 SLP168 T02500083 56012
KAOO 301953Z AUTO VRB04KT 10SM CLR 25/08 A3005 RMK AO2 SLP171 T02500083
KAOO 301853Z AUTO VRB03KT 10SM FEW065 24/08 A3007 RMK AO2 SLP176 T02440083
KAOO 301753Z AUTO 11004KT 10SM BKN055 23/09 A3008 RMK AO2 SLP181 T02280089 10250 20161 58009
KAOO 301653Z AUTO VRB05KT 10SM FEW050 23/09 A3009 RMK AO2 SLP184 T02330089
KAOO 301553Z AUTO 04005KT 10SM BKN048 23/09 A3010 RMK AO2 SLP187 T02330094
KAOO 301453Z AUTO VRB04KT 10SM CLR 22/09 A3011 RMK AO2 SLP190 T02220094 50002
KAOO 301353Z AUTO 00000KT 10SM CLR 21/11 A3012 RMK AO2 SLP194 T02060106
KAOO 301253Z AUTO 00000KT 10SM CLR 18/12 A3012 RMK AO2 SLP193 T01780122
KAOO 301153Z AUTO 00000KT 10SM CLR 16/12 A3010 RMK AO2 SLP187 T01610122 10161 20100 51005
KAOO 301053Z AUTO 00000KT 10SM CLR 13/11 A3010 RMK AO2 SLP187 T01330111
KAOO 300953Z AUTO 00000KT 10SM CLR 11/09 A3009 RMK AO2 SLP187 T01110094
KAOO 300853Z AUTO 00000KT 10SM CLR 11/09 A3009 RMK AO2 SLP184 T01110094 58003
KAOO 300753Z AUTO 24003KT 10SM CLR 12/10 A3010 RMK AO2 SLP189 T01170100
KAOO 300653Z AUTO 00000KT 10SM CLR 13/10 A3008 RMK AO2 SLP183 T01280100
KAOO 300553Z AUTO 25003KT 10SM CLR 13/11 A3009 RMK AO2 SLP189 T01280106 10200 20128 51010
KAOO 300453Z AUTO 00000KT 10SM CLR 13/11 A3009 RMK AO2 SLP188 T01330106 402220128
KAOO 300353Z AUTO 17003KT 10SM CLR 13/11 A3008 RMK AO2 SLP183 T01330106
KAOO 300253Z AUTO 02004KT 10SM CLR 16/11 A3006 RMK AO2 SLP176 T01560106 51006
KAOO 300153Z AUTO 12004KT 10SM CLR 15/11 A3006 RMK AO2 SLP176 T01500111
KAOO 300053Z AUTO 29004KT 10SM CLR 18/11 A3005 RMK AO2 SLP172 T01780111
KAOO 292353Z AUTO 30005KT 10SM CLR 20/11 A3004 RMK AO2 SLP170 T02000106 10222 20183 53002
KAOO 292253Z AUTO 31007KT 10SM SCT045 21/11 A3004 RMK AO2 SLP166 T02110106
KAOO 292153Z AUTO 28010G14KT 10SM FEW039 22/11 A3003 RMK AO2 SLP164 T02170111
KAOO 292053Z AUTO 31012G18KT 10SM SCT041 SCT050 22/11 A3004 RMK AO2 SLP166 T02220106 58008
KAOO 291953Z AUTO 29008KT 10SM SCT040 21/11 A3005 RMK AO2 SLP170 T02110106
KAOO 291853Z AUTO 29009KT 10SM OVC038 21/12 A3005 RMK AO2 SLP171 T02060117
KAOO 291827Z AUTO 29009KT 10SM OVC034 19/11 A3006 RMK AO2 T01890106
KAOO 291753Z AUTO 29010KT 10SM OVC027 18/11 A3006 RMK AO2 SLP175 T01830111 10194 20144 53004
KAOO 291653Z AUTO 31008KT 10SM OVC025 18/11 A3006 RMK AO2 SLP172 T01780106
KAOO 291553Z AUTO 31012G18KT 10SM BKN026 19/11 A3005 RMK AO2 SLP168 T01890111
KAOO 291542Z AUTO 32012KT 10SM BKN026 BKN030 19/11 A3005 RMK AO2 T01890111
KAOO 291530Z AUTO 31009G19KT 280V340 10SM FEW024 SCT031 19/11 A3005 RMK AO2 T01890111
KAOO 291453Z AUTO 30011KT 10SM OVC023 18/11 A3004 RMK AO2 SLP166 T01830106 50002
KAOO 291353Z AUTO 32008KT 10SM OVC024 17/11 A3005 RMK AO2 SLP169 T01670106
KAOO 291253Z AUTO 30009KT 10SM BKN022 16/11 A3004 RMK AO2 SLP166 T01560106
KAOO 291248Z AUTO 31008KT 10SM BKN021 16/11 A3004 RMK AO2